createdAt,value
2023-10-09T00:02:20.818Z,15.59
2023-10-09T00:07:24.555Z,15.86
2023-10-09T00:12:26.895Z,15.51
2023-10-09T00:17:33.469Z,14.94
2023-10-09T00:22:39.321Z,15.09
2023-10-09T00:27:43.460Z,14.37
2023-10-09T00:33:11.252Z,15.19
2023-10-09T00:38:25.456Z,14.21
2023-10-09T00:43:31.039Z,13.38
2023-10-09T00:48:38.975Z,13.19
2023-10-09T00:53:40.879Z,13.08
2023-10-09T00:58:44.346Z,13.96
2023-10-09T01:03:46.645Z,14.88
2023-10-09T01:09:07.048Z,15.16
2023-10-09T01:14:08.694Z,13.63
2023-10-09T01:19:26.250Z,14.01
2023-10-09T01:24:29.017Z,14.65
2023-10-09T01:29:30.917Z,13.81
2023-10-09T01:34:39.142Z,13.86
2023-10-09T01:39:44.004Z,13.80
2023-10-09T01:44:48.451Z,13.58
2023-10-09T01:49:50.754Z,13.80
2023-10-09T01:54:54.574Z,14.24
2023-10-09T01:59:56.279Z,13.29
2023-10-09T02:05:12.614Z,14.11
2023-10-09T02:10:27.613Z,14.07
2023-10-09T02:15:46.516Z,14.56
2023-10-09T02:21:02.471Z,14.38
2023-10-09T02:26:06.382Z,14.64
2023-10-09T02:31:13.189Z,13.84
2023-10-09T02:36:15.104Z,14.38
2023-10-09T02:41:17.171Z,14.70
2023-10-09T02:46:20.743Z,14.08
2023-10-09T02:51:27.307Z,13.96
2023-10-09T02:56:38.806Z,14.43
2023-10-09T03:01:42.198Z,14.56
2023-10-09T03:06:52.790Z,15.07
2023-10-09T03:12:03.621Z,14.82
2023-10-09T03:17:06.445Z,14.18
2023-10-09T03:22:12.361Z,14.37
2023-10-09T03:27:15.418Z,14.17
2023-10-09T03:32:17.278Z,14.49
2023-10-09T03:37:35.210Z,14.41
2023-10-09T03:42:38.162Z,13.46
2023-10-09T03:47:44.432Z,14.64
2023-10-09T03:52:46.267Z,14.37
2023-10-09T03:57:49.254Z,13.73
2023-10-09T04:02:51.871Z,14.35
2023-10-09T04:07:58.164Z,13.65
2023-10-09T04:13:01.643Z,14.25
2023-10-09T04:18:05.476Z,14.17
2023-10-09T04:23:07.474Z,13.92
2023-10-09T04:28:11.220Z,14.71
2023-10-09T04:33:29.928Z,14.11
2023-10-09T04:38:35.572Z,13.40
2023-10-09T04:43:37.176Z,14.12
2023-10-09T04:48:39.672Z,13.83
2023-10-09T04:53:51.272Z,13.73
2023-10-09T04:59:04.567Z,13.81
2023-10-09T05:04:19.673Z,14.77
2023-10-09T05:09:23.984Z,13.37
2023-10-09T05:14:28.491Z,14.32
2023-10-09T05:19:30.747Z,13.88
2023-10-09T05:24:45.031Z,14.00
2023-10-09T05:30:00.489Z,14.48
2023-10-09T05:35:02.557Z,13.65
2023-10-09T05:40:18.232Z,13.21
2023-10-09T05:45:51.908Z,13.17
2023-10-09T05:51:13.894Z,12.37
2023-10-09T05:56:33.506Z,13.34
2023-10-09T06:01:54.117Z,12.96
2023-10-09T06:07:01.859Z,12.69
2023-10-09T06:12:26.693Z,12.72
2023-10-09T06:17:44.448Z,12.53
2023-10-09T06:22:58.232Z,12.93
2023-10-09T06:28:00.236Z,13.99
2023-10-09T06:33:21.612Z,13.76
2023-10-09T06:38:24.436Z,13.20
2023-10-09T06:43:26.006Z,13.60
2023-10-09T06:48:40.448Z,13.99
2023-10-09T06:53:55.130Z,14.57
2023-10-09T06:59:05.087Z,13.37
2023-10-09T07:04:26.008Z,14.75
2023-10-09T07:10:05.690Z,13.79
2023-10-09T07:15:07.872Z,14.26
2023-10-09T07:20:30.412Z,13.58
2023-10-09T07:25:56.293Z,13.98
2023-10-09T07:31:01.978Z,13.90
2023-10-09T07:36:09.981Z,14.13
2023-10-09T07:41:11.796Z,14.70
2023-10-09T07:46:31.463Z,14.07
2023-10-09T07:51:33.260Z,14.28
2023-10-09T07:56:54.293Z,14.90
2023-10-09T08:02:00.419Z,14.87
2023-10-09T08:08:03.333Z,14.97
2023-10-09T08:12:59.342Z,14.87
2023-10-09T08:18:11.142Z,15.50
2023-10-09T08:23:23.392Z,16.32
2023-10-09T08:28:43.585Z,16.36
2023-10-09T08:38:50.150Z,17.17
2023-10-09T08:43:54.027Z,16.81
2023-10-09T08:48:57.580Z,16.77
2023-10-09T08:53:59.294Z,16.58
2023-10-09T08:59:03.063Z,16.89
2023-10-09T09:04:05.070Z,17.55
2023-10-09T09:09:16.266Z,17.48
2023-10-09T09:14:23.278Z,17.50
2023-10-09T09:19:33.632Z,18.37
2023-10-09T09:24:35.397Z,18.92
2023-10-09T09:29:39.981Z,18.78
2023-10-09T09:34:58.457Z,17.88
2023-10-09T09:40:02.568Z,18.75
2023-10-09T09:45:06.544Z,18.69
2023-10-09T09:50:25.754Z,19.57
2023-10-09T09:55:35.095Z,19.38
2023-10-09T10:00:41.856Z,20.14
2023-10-09T10:05:47.696Z,19.64
2023-10-09T10:10:59.455Z,20.44
2023-10-09T10:16:10.310Z,19.39
2023-10-09T10:21:30.425Z,19.92
2023-10-09T10:26:34.881Z,20.32
2023-10-09T10:32:02.091Z,19.81
2023-10-09T10:37:07.308Z,20.44
2023-10-09T10:42:10.390Z,19.95
2023-10-09T10:47:23.962Z,20.65
2023-10-09T10:52:46.361Z,19.42
2023-10-09T10:57:58.444Z,19.99
2023-10-09T11:06:16.522Z,19.40
2023-10-09T11:11:20.794Z,19.53
2023-10-09T11:16:36.063Z,19.48
2023-10-09T11:21:42.080Z,20.39
2023-10-09T11:26:44.566Z,19.30
2023-10-09T11:32:18.419Z,19.44
2023-10-09T11:37:31.196Z,20.53
2023-10-09T11:42:48.189Z,18.91
2023-10-09T11:48:13.191Z,19.50
2023-10-09T11:53:34.503Z,19.30
2023-10-09T11:58:41.262Z,19.49
2023-10-09T12:03:44.219Z,20.77
2023-10-09T12:08:50.126Z,20.37
2023-10-09T12:13:57.615Z,20.48
2023-10-09T12:19:00.448Z,21.17
2023-10-09T12:24:02.914Z,21.97
2023-10-09T12:29:04.988Z,21.72
2023-10-09T12:34:06.736Z,21.92
2023-10-09T12:39:09.449Z,21.74
2023-10-09T12:44:20.174Z,21.24
2023-10-09T12:49:26.412Z,21.57
2023-10-09T12:54:28.855Z,21.39
2023-10-09T12:59:30.515Z,21.49
2023-10-09T13:04:33.905Z,21.41
2023-10-09T13:09:43.976Z,20.67
2023-10-09T13:14:46.685Z,21.76
2023-10-09T13:19:48.384Z,21.55
2023-10-09T13:24:51.095Z,21.76
2023-10-09T13:29:53.683Z,22.26
2023-10-09T13:34:56.751Z,22.03
2023-10-09T13:39:59.013Z,21.55
2023-10-09T13:45:05.871Z,22.58
2023-10-09T13:50:10.828Z,22.57
2023-10-09T13:55:18.728Z,22.56
2023-10-09T14:00:34.049Z,21.63
2023-10-09T14:05:37.872Z,22.33
2023-10-09T14:10:40.062Z,22.48
2023-10-09T14:15:44.082Z,22.59
2023-10-09T14:20:45.773Z,23.31
2023-10-09T14:25:50.807Z,22.46
2023-10-09T14:31:00.380Z,23.00
2023-10-09T14:36:03.228Z,22.28
2023-10-09T14:41:08.564Z,22.55
2023-10-09T14:46:14.572Z,23.21
2023-10-09T14:51:16.509Z,22.86
2023-10-09T14:56:19.851Z,22.80
2023-10-09T15:05:14.939Z,21.86
2023-10-09T15:10:16.992Z,21.45
2023-10-09T15:15:20.076Z,22.07
2023-10-09T15:20:22.181Z,21.92
2023-10-09T15:25:23.863Z,22.64
2023-10-09T15:30:27.672Z,21.98
2023-10-09T15:35:35.074Z,21.72
2023-10-09T15:40:40.229Z,22.21
2023-10-09T15:45:45.636Z,21.86
2023-10-09T15:50:49.716Z,22.30
2023-10-09T15:55:53.383Z,21.40
2023-10-09T16:00:55.068Z,21.45
2023-10-09T16:05:58.809Z,21.41
2023-10-09T16:11:00.548Z,21.35
2023-10-09T16:16:02.603Z,21.70
2023-10-09T16:21:05.360Z,21.75
2023-10-09T16:26:08.434Z,21.39
2023-10-09T16:31:15.439Z,21.14
2023-10-09T16:36:17.250Z,21.47
2023-10-09T16:41:18.996Z,22.51
2023-10-09T16:46:24.290Z,22.59
2023-10-09T16:51:26.019Z,22.83
2023-10-09T16:56:33.550Z,22.21
2023-10-09T17:01:35.234Z,21.15
2023-10-09T17:06:36.958Z,20.89
2023-10-09T17:11:41.332Z,21.45
2023-10-09T17:16:43.077Z,20.51
2023-10-09T17:21:44.766Z,21.03
2023-10-09T17:26:47.327Z,21.30
2023-10-09T17:31:49.021Z,21.10
2023-10-09T17:36:50.837Z,20.73
2023-10-09T17:41:54.194Z,20.96
2023-10-09T17:46:55.997Z,20.17
2023-10-09T17:52:01.133Z,20.48
2023-10-09T17:57:02.958Z,19.89
2023-10-09T18:02:05.513Z,20.34
2023-10-09T18:07:07.200Z,20.28
2023-10-09T18:12:10.037Z,20.44
2023-10-09T18:17:11.805Z,20.17
2023-10-09T18:22:14.626Z,20.53
2023-10-09T18:27:17.872Z,19.60
2023-10-09T18:32:20.288Z,20.11
2023-10-09T18:37:23.467Z,20.60
2023-10-09T18:42:25.106Z,20.81
2023-10-09T18:47:28.515Z,20.15
2023-10-09T18:52:30.297Z,19.72
2023-10-09T18:57:32.011Z,19.98
2023-10-09T19:02:33.782Z,20.34
2023-10-09T19:07:39.178Z,20.02
2023-10-09T19:12:42.185Z,20.04
2023-10-09T19:17:46.343Z,19.38
2023-10-09T19:22:48.139Z,19.31
2023-10-09T19:27:50.123Z,19.44
2023-10-09T19:32:52.082Z,19.79
2023-10-09T19:37:55.016Z,19.35
2023-10-09T19:42:56.784Z,19.42
2023-10-09T19:47:58.713Z,18.98
2023-10-09T19:53:02.589Z,19.36
2023-10-09T19:58:05.545Z,18.74
2023-10-09T20:03:07.308Z,18.51
2023-10-09T20:08:09.089Z,18.69
2023-10-09T20:13:11.123Z,18.86
2023-10-09T20:18:13.046Z,18.15
2023-10-09T20:23:17.445Z,17.95
2023-10-09T20:28:19.543Z,18.19
2023-10-09T20:33:23.860Z,18.23
2023-10-09T20:38:27.188Z,18.44
2023-10-09T20:43:28.923Z,17.78
2023-10-09T20:48:30.565Z,18.17
2023-10-09T20:53:32.342Z,18.17
2023-10-09T20:58:34.094Z,19.11
2023-10-09T21:03:35.858Z,18.78
2023-10-09T21:08:37.679Z,18.72
2023-10-09T21:13:40.730Z,18.62
2023-10-09T21:18:47.104Z,19.00
2023-10-09T21:23:49.213Z,18.07
2023-10-09T21:28:52.284Z,18.96
2023-10-09T21:33:54.074Z,18.52
2023-10-09T21:38:57.460Z,19.25
2023-10-09T21:43:59.150Z,18.88
2023-10-09T21:49:00.973Z,19.24
2023-10-09T21:54:04.879Z,19.30
2023-10-09T21:59:06.849Z,18.32
2023-10-09T22:04:09.188Z,18.41
2023-10-09T22:09:15.808Z,18.39
2023-10-09T22:14:19.285Z,17.90
2023-10-09T22:19:26.399Z,17.05
2023-10-09T22:24:30.754Z,17.96
2023-10-09T22:29:32.413Z,17.66
2023-10-09T22:34:34.116Z,17.36
2023-10-09T22:39:37.691Z,17.79
2023-10-09T22:44:44.574Z,15.88
2023-10-09T22:49:53.977Z,16.92
2023-10-09T22:54:56.268Z,16.23
2023-10-09T23:00:01.605Z,15.63
2023-10-09T23:05:06.723Z,16.31
2023-10-09T23:10:16.542Z,17.34
2023-10-09T23:15:34.146Z,17.35
2023-10-09T23:20:49.919Z,16.59
2023-10-09T23:25:54.372Z,17.54
2023-10-09T23:30:58.472Z,16.37
2023-10-09T23:36:05.909Z,16.32
2023-10-09T23:41:13.461Z,16.77
2023-10-09T23:46:19.233Z,16.81
2023-10-09T23:51:21.444Z,16.67
2023-10-09T23:56:42.688Z,16.97
